createdAt,value
2023-04-25T00:03:20.111Z,9.96
2023-04-25T00:08:24.417Z,10.07
2023-04-25T00:13:27.859Z,10.13
2023-04-25T00:18:30.828Z,10.18
2023-04-25T00:23:33.721Z,10.10
2023-04-25T00:28:36.640Z,9.99
2023-04-25T00:33:39.525Z,10.00
2023-04-25T00:38:42.498Z,10.05
2023-04-25T00:43:47.255Z,10.05
2023-04-25T00:48:50.474Z,10.04
2023-04-25T00:53:54.069Z,10.05
2023-04-25T00:59:16.669Z,10.03
2023-04-25T01:04:19.858Z,10.01
2023-04-25T01:09:24.152Z,10.01
2023-04-25T01:14:27.373Z,10.02
2023-04-25T01:19:30.498Z,9.99
2023-04-25T01:24:34.237Z,10.00
2023-04-25T01:29:37.566Z,9.98
2023-04-25T01:34:40.532Z,9.83
2023-04-25T01:40:02.142Z,9.81
2023-04-25T01:45:07.678Z,9.81
2023-04-25T01:50:12.415Z,9.86
2023-04-25T01:55:15.768Z,9.97
2023-04-25T02:00:35.492Z,9.95
2023-04-25T02:05:41.618Z,10.05
2023-04-25T02:10:48.146Z,9.96
2023-04-25T02:15:54.637Z,10.00
2023-04-25T02:21:16.386Z,9.91
2023-04-25T02:26:20.079Z,9.95
2023-04-25T02:31:23.056Z,10.11
2023-04-25T02:36:27.888Z,10.17
2023-04-25T02:41:31.016Z,10.22
2023-04-25T02:46:39.278Z,10.21
2023-04-25T02:51:42.947Z,10.20
2023-04-25T02:56:46.094Z,10.23
2023-04-25T03:01:56.385Z,10.29
2023-04-25T03:07:00.745Z,10.28
2023-04-25T03:12:04.088Z,10.25
2023-04-25T03:17:09.109Z,10.20
2023-04-25T03:22:30.886Z,10.18
2023-04-25T03:27:34.061Z,10.27
2023-04-25T03:32:37.184Z,10.38
2023-04-25T03:37:41.805Z,10.40
2023-04-25T03:43:03.279Z,10.50
2023-04-25T03:48:06.471Z,10.54
2023-04-25T03:53:09.970Z,10.61
2023-04-25T03:58:32.629Z,10.69
2023-04-25T04:03:37.571Z,10.79
2023-04-25T04:08:41.811Z,10.81
2023-04-25T04:13:46.388Z,10.83
2023-04-25T04:18:49.459Z,10.95
2023-04-25T04:23:53.757Z,10.98
2023-04-25T04:29:21.971Z,11.11
2023-04-25T04:34:36.348Z,11.15
2023-04-25T04:39:39.686Z,11.24
2023-04-25T04:45:07.783Z,11.44
2023-04-25T04:50:49.213Z,11.57
2023-04-25T04:56:01.918Z,11.75
2023-04-25T05:01:23.751Z,11.80
2023-04-25T05:06:49.872Z,11.81
2023-04-25T05:11:53.322Z,11.80
2023-04-25T05:17:25.331Z,11.88
2023-04-25T05:22:48.553Z,12.02
2023-04-25T05:28:14.791Z,12.13
2023-04-25T05:33:28.646Z,12.10
2023-04-25T05:38:34.523Z,12.31
2023-04-25T05:43:48.788Z,12.49
2023-04-25T05:49:01.929Z,12.60
2023-04-25T05:54:23.695Z,12.56
2023-04-25T05:59:27.037Z,12.69
2023-04-25T06:04:30.504Z,12.80
2023-04-25T06:09:33.643Z,12.74
2023-04-25T06:14:36.786Z,12.90
2023-04-25T06:19:40.082Z,12.92
2023-04-25T06:24:43.285Z,12.94
2023-04-25T06:29:46.371Z,13.00
2023-04-25T06:34:50.587Z,13.02
2023-04-25T06:39:53.664Z,13.18
2023-04-25T06:44:57.201Z,13.31
2023-04-25T06:50:00.581Z,13.23
2023-04-25T06:55:06.225Z,13.33
2023-04-25T07:00:35.568Z,13.33
2023-04-25T07:05:38.786Z,13.22
2023-04-25T07:10:42.160Z,13.32
2023-04-25T07:15:45.117Z,13.29
2023-04-25T07:20:48.496Z,13.18
2023-04-25T07:25:51.608Z,13.17
2023-04-25T07:30:59.307Z,13.02
2023-04-25T07:36:02.255Z,13.01
2023-04-25T07:41:05.480Z,13.11
2023-04-25T07:46:08.705Z,13.20
2023-04-25T07:51:12.802Z,13.20
2023-04-25T07:56:16.457Z,13.26
2023-04-25T08:01:22.826Z,13.15
2023-04-25T08:06:38.397Z,13.13
2023-04-25T08:11:46.357Z,13.09
2023-04-25T08:16:51.955Z,13.08
2023-04-25T08:21:57.763Z,13.11
2023-04-25T08:27:08.894Z,12.97
2023-04-25T08:32:12.482Z,12.91
2023-04-25T08:37:22.108Z,13.05
2023-04-25T08:42:39.546Z,12.93
2023-04-25T08:47:44.555Z,13.00
2023-04-25T08:52:49.332Z,13.01
2023-04-25T08:57:53.763Z,13.00
2023-04-25T09:02:58.194Z,13.08
2023-04-25T09:08:06.058Z,13.23
2023-04-25T09:13:26.915Z,13.13
2023-04-25T09:18:50.723Z,13.13
2023-04-25T09:23:54.899Z,13.01
2023-04-25T09:29:08.484Z,13.25
2023-04-25T09:34:16.914Z,13.22
2023-04-25T09:39:29.854Z,13.10
2023-04-25T09:44:46.894Z,13.00
2023-04-25T09:49:53.061Z,13.03
2023-04-25T09:54:57.466Z,12.98
2023-04-25T10:00:13.260Z,13.01
2023-04-25T10:05:19.868Z,12.95
2023-04-25T10:10:41.639Z,12.96
2023-04-25T10:15:44.970Z,13.00
2023-04-25T10:20:47.898Z,12.98
2023-04-25T10:26:13.988Z,12.94
2023-04-25T10:31:18.677Z,12.91
2023-04-25T10:36:28.378Z,12.94
2023-04-25T10:41:31.341Z,12.92
2023-04-25T10:46:36.165Z,12.82
2023-04-25T10:51:51.660Z,12.93
2023-04-25T10:56:59.892Z,12.83
2023-04-25T11:02:14.452Z,12.78
2023-04-25T11:13:05.285Z,12.81
2023-04-25T11:18:28.406Z,12.81
2023-04-25T11:23:31.977Z,12.73
2023-04-25T11:28:34.859Z,12.77
2023-04-25T11:33:38.032Z,12.74
2023-04-25T11:38:41.613Z,12.75
2023-04-25T11:43:45.004Z,12.77
2023-04-25T11:48:49.219Z,12.87
2023-04-25T11:53:52.435Z,12.83
2023-04-25T11:59:14.644Z,12.83
2023-04-25T12:04:22.893Z,12.91
2023-04-25T12:09:31.677Z,13.01
2023-04-25T12:14:36.960Z,12.99
2023-04-25T12:19:44.917Z,13.09
2023-04-25T12:25:07.120Z,13.09
2023-04-25T12:30:11.797Z,13.09
2023-04-25T12:35:14.629Z,13.13
2023-04-25T12:40:17.780Z,13.11
2023-04-25T12:45:20.510Z,13.10
2023-04-25T12:50:23.442Z,13.27
2023-04-25T12:55:26.601Z,13.27
2023-04-25T13:00:30.815Z,13.42
2023-04-25T13:05:33.628Z,13.42
2023-04-25T13:10:37.457Z,13.35
2023-04-25T13:15:40.754Z,13.50
2023-04-25T13:20:43.683Z,13.29
2023-04-25T13:25:46.509Z,13.32
2023-04-25T13:30:49.384Z,13.29
2023-04-25T13:35:56.619Z,13.16
2023-04-25T13:40:59.670Z,13.20
2023-04-25T13:46:02.593Z,13.21
2023-04-25T13:51:05.699Z,13.21
2023-04-25T13:56:08.595Z,13.07
2023-04-25T14:01:12.006Z,13.04
2023-04-25T14:06:14.950Z,13.15
2023-04-25T14:11:19.452Z,13.11
2023-04-25T14:16:24.121Z,12.98
2023-04-25T14:21:45.242Z,12.87
2023-04-25T14:26:48.155Z,12.85
2023-04-25T14:31:51.144Z,12.91
2023-04-25T14:36:54.024Z,12.94
2023-04-25T14:41:57.556Z,12.81
2023-04-25T14:47:00.745Z,12.78
2023-04-25T14:52:04.346Z,12.73
2023-04-25T14:57:07.540Z,12.62
2023-04-25T15:02:10.781Z,12.66
2023-04-25T15:07:13.455Z,12.65
2023-04-25T15:12:16.351Z,12.61
2023-04-25T15:17:19.215Z,12.58
2023-04-25T15:22:22.392Z,12.46
2023-04-25T15:27:25.253Z,12.35
2023-04-25T15:32:28.181Z,12.33
2023-04-25T15:37:31.795Z,12.23
2023-04-25T15:42:34.725Z,12.34
2023-04-25T15:47:39.022Z,12.28
2023-04-25T15:52:43.924Z,12.19
2023-04-25T15:57:47.969Z,12.22
2023-04-25T16:02:51.803Z,12.17
2023-04-25T16:07:55.002Z,12.11
2023-04-25T16:12:58.000Z,12.11
2023-04-25T16:18:00.961Z,12.06
2023-04-25T16:23:03.920Z,12.03
2023-04-25T16:28:06.984Z,12.01
2023-04-25T16:33:10.203Z,11.92
2023-04-25T16:38:31.466Z,11.88
2023-04-25T16:43:34.650Z,11.81
2023-04-25T16:48:37.531Z,11.81
2023-04-25T16:53:40.425Z,11.69
2023-04-25T16:58:43.548Z,11.71
2023-04-25T17:03:47.865Z,11.67
2023-04-25T17:08:51.482Z,11.56
2023-04-25T17:13:54.744Z,11.59
2023-04-25T17:19:16.452Z,11.56
2023-04-25T17:24:22.087Z,11.52
2023-04-25T17:29:25.148Z,11.53
2023-04-25T17:34:48.326Z,11.48
2023-04-25T17:40:12.350Z,11.46
2023-04-25T17:45:15.412Z,11.44
2023-04-25T17:50:18.732Z,11.37
2023-04-25T17:55:21.706Z,11.50
2023-04-25T18:00:25.011Z,11.44
2023-04-25T18:05:30.468Z,11.40
2023-04-25T18:10:34.552Z,11.39
2023-04-25T18:15:37.586Z,11.35
2023-04-25T18:20:44.723Z,11.36
2023-04-25T18:25:52.169Z,11.45
2023-04-25T18:30:55.154Z,11.46
2023-04-25T18:35:59.809Z,11.48
2023-04-25T18:41:20.978Z,11.50
2023-04-25T18:46:26.116Z,11.51
2023-04-25T18:51:32.574Z,11.55
2023-04-25T18:56:35.949Z,11.56
2023-04-25T19:01:57.713Z,11.62
2023-04-25T19:07:01.406Z,11.63
2023-04-25T19:12:05.272Z,11.65
2023-04-25T19:17:08.237Z,11.62
2023-04-25T19:22:11.821Z,11.69
2023-04-25T19:27:15.149Z,11.70
2023-04-25T19:32:18.004Z,11.69
2023-04-25T19:37:21.064Z,11.77
2023-04-25T19:42:24.291Z,11.69
2023-04-25T19:47:45.521Z,11.66
2023-04-25T19:52:48.506Z,11.67
2023-04-25T19:58:10.006Z,11.63
2023-04-25T20:03:13.083Z,11.58
2023-04-25T20:08:16.463Z,11.49
2023-04-25T20:13:19.312Z,11.48
2023-04-25T20:18:22.214Z,11.52
2023-04-25T20:23:25.219Z,11.48
2023-04-25T20:28:46.911Z,11.52
2023-04-25T20:33:49.849Z,11.43
2023-04-25T20:38:53.213Z,11.44
2023-04-25T20:43:57.118Z,11.40
2023-04-25T20:49:01.739Z,11.43
2023-04-25T20:54:04.684Z,11.42
2023-04-25T20:59:07.752Z,11.52
2023-04-25T21:04:11.065Z,11.48
2023-04-25T21:09:14.491Z,11.52
2023-04-25T21:14:18.767Z,11.54
2023-04-25T21:19:21.713Z,11.53
2023-04-25T21:24:27.094Z,11.49
2023-04-25T21:29:30.038Z,11.52
2023-04-25T21:34:32.944Z,11.63
2023-04-25T21:39:35.824Z,11.61
2023-04-25T21:44:38.761Z,11.57
2023-04-25T21:49:41.732Z,11.55
2023-04-25T21:54:44.785Z,11.60
2023-04-25T21:59:48.270Z,11.67
2023-04-25T22:04:52.656Z,11.70
2023-04-25T22:09:56.058Z,11.67
2023-04-25T22:14:59.839Z,11.73
2023-04-25T22:20:06.032Z,11.91
2023-04-25T22:25:10.157Z,11.86
2023-04-25T22:30:13.618Z,11.81
2023-04-25T22:35:16.867Z,11.79
2023-04-25T22:40:20.085Z,11.74
2023-04-25T22:45:23.036Z,11.77
2023-04-25T22:50:27.248Z,11.72
2023-04-25T22:55:30.252Z,11.72
2023-04-25T23:00:34.608Z,11.68
2023-04-25T23:05:38.556Z,11.65
2023-04-25T23:11:00.401Z,11.71
2023-04-25T23:16:22.400Z,11.63
2023-04-25T23:21:25.635Z,11.68
2023-04-25T23:26:28.437Z,11.63
2023-04-25T23:31:31.414Z,11.64
2023-04-25T23:36:34.578Z,11.68
2023-04-25T23:41:37.987Z,11.61
2023-04-25T23:46:41.365Z,11.61
2023-04-25T23:51:44.435Z,11.55
2023-04-25T23:56:47.359Z,11.64
